Detalii statie VALKAPA [00001D0A]

Toti senzorii

Date Temperatura solului [C]Precipitatii [mm]Voltaj baterie [mV]Leaf Wetness [Min]HC Air temperature [C]HC Relative humidity [%]Punctul de roua [C]
medieminmaxsumaultimatimpmedieminmaxmediemediemin
2019-06-15 18:00:00 0 7236 32.82 32.32 33.53 39.39 16.9 15.3
2019-06-15 19:00:00 0 7070 31.32 30.18 32.16 47.9 18.7 18.5
2019-06-15 20:00:00 0 6904 29.29 27.79 30.26 55.28 19.1 18.5
2019-06-15 21:00:00 0 6864 26.53 25.82 27.47 74.6 21.4 20.7
2019-06-15 22:00:00 0 6854 24.7 24.18 25.62 82.64 21.3 20.8
2019-06-15 23:00:00 0 6854 23.8 23.44 24.51 84.52 20.8 20
2019-06-16 00:00:00 0 6854 23.68 23.18 24.28 79.51 19.7 19.5
2019-06-16 01:00:00 0 6834 21.98 21.15 22.76 88.66 19.8 19.7
2019-06-16 02:00:00 0 6834 21.04 20.8 21.19 93.88 19.8 19.6
2019-06-16 03:00:00 0 6826 20.76 20.59 21.17 95.45 19.9 19.6
2019-06-16 04:00:00 0 6826 19.87 19.26 20.49 97.49 19.3 18.7
2019-06-16 05:00:00 0 6816 19.29 19.02 19.68 99.91 19.2 19
2019-06-16 06:00:00 0 6854 19.74 19.21 20.6 99.88 19.6 19.2
2019-06-16 07:00:00 0 6914 22.37 20.94 23.63 89.3 20.3 20.1
2019-06-16 08:00:00 0 6992 25.92 23.9 27.31 67.5 19.1 18.3
2019-06-16 09:00:00 0 7050 26.82 26.16 27.43 58.99 17.9 17.7
2019-06-16 10:00:00 0 7108 28.32 27.52 29.21 54.97 18.2 17.9
2019-06-16 11:00:00 0 7226 30.16 29.15 31.36 51.1 18.7 18.2
2019-06-16 12:00:00 0 7226 31.81 30.68 32.96 45.89 18.5 18.1
2019-06-16 13:00:00 0 7226 32.86 31.62 34.42 42.13 18.1 17.4
2019-06-16 14:00:00 0 7216 33.74 33.09 34.68 38.43 17.3 16.8
2019-06-16 15:00:00 0 7226 34.13 33.44 35.41 35.35 16.4 15.3
2019-06-16 16:00:00 0 7216 33.95 32.2 35.97 33.12 15.1 14.4
2019-06-16 17:00:00 0 7216 31.77 31.25 32.19 41.41 16.7 15.7
2019-06-16 18:00:00 0 7216 32.56 31.15 33.59 42.56 17.9 17
2019-06-16 19:00:00 0 6962 32.15 30.35 33.09 45.33 18.5 17.4
2019-06-16 20:00:00 0 6884 28.65 27.97 30.01 59.18 19.7 19.3
2019-06-16 21:00:00 0 6864 26.75 25.17 27.9 66.96 19.9 17.3
2019-06-16 22:00:00 0 6854 23.15 22.29 24.84 66.72 16.4 16.1
2019-06-16 23:00:00 13.8 6844 10.66 22.43 76.81 0
2019-06-17 00:00:00 1.8 6844 19.07 18.49 19.72 95.83 18.2 17.1
2019-06-17 01:00:00 0.6 6834 9.13 19.33 83.33 0
2019-06-17 02:00:00 0 6816 18.74 18.6 18.84 87.73 16.5 16.4
2019-06-17 03:00:00 0 6816 18.99 18.81 19.08 86.52 16.5 16.4
2019-06-17 04:00:00 0 6806 18.75 18.61 18.84 90 16.9 16.8
2019-06-17 05:00:00 0 6806 18.26 17.95 18.69 96.84 17.6 17.3
2019-06-17 06:00:00 0.2 6844 17.99 17.84 18.14 100 17.9 17.8
2019-06-17 07:00:00 0 6972 18.53 18.15 19.11 98.71 18.2 18.1
2019-06-17 08:00:00 0 7128 19.87 19.21 20.6 91.52 18.3 17.9
2019-06-17 09:00:00 0 7206 21.89 20.38 22.7 80.12 18.1 17.8
2019-06-17 10:00:00 0 7226 23.17 22.95 23.63 73.6 18 17.4
2019-06-17 11:00:00 0 7226 23.83 23.23 24.76 72.62 18.4 17.7
2019-06-17 12:00:00 0 7226 26.13 24.59 27.14 62.08 18.1 17.1
2019-06-17 13:00:00 0 7226 26.74 25.94 27.81 59.72 18.1 16.9
2019-06-17 14:00:00 0 7226 27.82 27.29 28.64 60.35 19.2 18.4
2019-06-17 15:00:00 0 7226 28.02 27.3 28.95 58.17 18.8 18.2
2019-06-17 16:00:00 0 7226 27.44 26.43 28.23 60.88 19 18.5
2019-06-17 17:00:00 0 7226 27.76 26.88 28.66 59.77 19 18.6